sensor_id;sensor_type;location;lat;lon;timestamp;pressure;altitude;pressure_sealevel;temperature
40199;BMP280;25906;43.536;26.068;2023-06-14T00:01:13;98605.25;;;17.51
40199;BMP280;25906;43.536;26.068;2023-06-14T00:03:59;98611.22;;;17.66
40199;BMP280;25906;43.536;26.068;2023-06-14T00:06:44;98607.69;;;17.81
40199;BMP280;25906;43.536;26.068;2023-06-14T00:09:30;98610.09;;;17.78
40199;BMP280;25906;43.536;26.068;2023-06-14T00:12:15;98610.31;;;17.75
40199;BMP280;25906;43.536;26.068;2023-06-14T00:15:01;98612.75;;;17.78
40199;BMP280;25906;43.536;26.068;2023-06-14T00:17:46;98615.72;;;17.81
40199;BMP280;25906;43.536;26.068;2023-06-14T00:20:33;98618.09;;;17.47
40199;BMP280;25906;43.536;26.068;2023-06-14T00:23:18;98608.94;;;17.34
40199;BMP280;25906;43.536;26.068;2023-06-14T00:26:04;98614.09;;;17.37
40199;BMP280;25906;43.536;26.068;2023-06-14T00:28:49;98598.41;;;17.50
40199;BMP280;25906;43.536;26.068;2023-06-14T00:31:35;98606.00;;;17.32
40199;BMP280;25906;43.536;26.068;2023-06-14T00:34:20;98595.84;;;17.36
40199;BMP280;25906;43.536;26.068;2023-06-14T00:37:06;98601.53;;;17.23
40199;BMP280;25906;43.536;26.068;2023-06-14T00:39:51;98602.75;;;17.22
40199;BMP280;25906;43.536;26.068;2023-06-14T00:42:37;98604.16;;;17.17
40199;BMP280;25906;43.536;26.068;2023-06-14T00:45:22;98606.41;;;17.25
40199;BMP280;25906;43.536;26.068;2023-06-14T00:48:08;98601.75;;;17.19
40199;BMP280;25906;43.536;26.068;2023-06-14T00:50:54;98596.13;;;17.17
40199;BMP280;25906;43.536;26.068;2023-06-14T00:53:40;98603.88;;;17.15
40199;BMP280;25906;43.536;26.068;2023-06-14T00:56:31;98598.25;;;17.13
40199;BMP280;25906;43.536;26.068;2023-06-14T00:59:16;98598.75;;;16.92
40199;BMP280;25906;43.536;26.068;2023-06-14T01:02:02;98594.00;;;17.01
40199;BMP280;25906;43.536;26.068;2023-06-14T01:04:48;98596.47;;;17.05
40199;BMP280;25906;43.536;26.068;2023-06-14T01:10:56;98587.41;;;16.77
40199;BMP280;25906;43.536;26.068;2023-06-14T01:13:47;98590.66;;;16.66
40199;BMP280;25906;43.536;26.068;2023-06-14T01:16:34;98589.72;;;16.69
40199;BMP280;25906;43.536;26.068;2023-06-14T01:19:22;98590.38;;;16.64
40199;BMP280;25906;43.536;26.068;2023-06-14T01:22:11;98592.31;;;16.63
40199;BMP280;25906;43.536;26.068;2023-06-14T01:24:56;98596.25;;;16.68
40199;BMP280;25906;43.536;26.068;2023-06-14T01:27:43;98586.78;;;16.67
40199;BMP280;25906;43.536;26.068;2023-06-14T01:30:29;98593.31;;;16.66
40199;BMP280;25906;43.536;26.068;2023-06-14T01:33:18;98592.13;;;16.67
40199;BMP280;25906;43.536;26.068;2023-06-14T01:36:05;98591.84;;;16.65
40199;BMP280;25906;43.536;26.068;2023-06-14T01:38:52;98596.47;;;16.64
40199;BMP280;25906;43.536;26.068;2023-06-14T01:41:38;98590.59;;;16.60
40199;BMP280;25906;43.536;26.068;2023-06-14T01:44:25;98590.84;;;16.62
40199;BMP280;25906;43.536;26.068;2023-06-14T01:47:10;98592.00;;;16.56
40199;BMP280;25906;43.536;26.068;2023-06-14T01:49:56;98588.59;;;16.55
40199;BMP280;25906;43.536;26.068;2023-06-14T01:52:42;98586.88;;;16.58
40199;BMP280;25906;43.536;26.068;2023-06-14T01:55:27;98593.09;;;16.49
40199;BMP280;25906;43.536;26.068;2023-06-14T01:58:13;98595.25;;;16.45
40199;BMP280;25906;43.536;26.068;2023-06-14T02:00:58;98599.47;;;16.37
40199;BMP280;25906;43.536;26.068;2023-06-14T02:03:46;98604.72;;;16.46
40199;BMP280;25906;43.536;26.068;2023-06-14T02:06:31;98602.88;;;16.38
40199;BMP280;25906;43.536;26.068;2023-06-14T02:09:17;98599.59;;;16.28
40199;BMP280;25906;43.536;26.068;2023-06-14T02:12:02;98599.97;;;16.36
40199;BMP280;25906;43.536;26.068;2023-06-14T02:14:48;98602.34;;;16.34
40199;BMP280;25906;43.536;26.068;2023-06-14T02:17:34;98597.38;;;16.27
40199;BMP280;25906;43.536;26.068;2023-06-14T02:20:19;98596.00;;;16.31
40199;BMP280;25906;43.536;26.068;2023-06-14T02:23:05;98593.84;;;16.15
40199;BMP280;25906;43.536;26.068;2023-06-14T02:25:53;98602.09;;;16.17
40199;BMP280;25906;43.536;26.068;2023-06-14T02:28:38;98604.56;;;16.21
40199;BMP280;25906;43.536;26.068;2023-06-14T02:31:24;98607.91;;;16.16
40199;BMP280;25906;43.536;26.068;2023-06-14T02:34:09;98615.97;;;16.21
40199;BMP280;25906;43.536;26.068;2023-06-14T02:36:55;98618.03;;;16.11
40199;BMP280;25906;43.536;26.068;2023-06-14T02:39:41;98618.03;;;16.11
40199;BMP280;25906;43.536;26.068;2023-06-14T02:42:26;98625.28;;;16.11
40199;BMP280;25906;43.536;26.068;2023-06-14T02:45:11;98624.09;;;15.68
40199;BMP280;25906;43.536;26.068;2023-06-14T02:47:57;98630.91;;;15.84
40199;BMP280;25906;43.536;26.068;2023-06-14T02:50:42;98633.53;;;15.93
40199;BMP280;25906;43.536;26.068;2023-06-14T02:53:28;98635.81;;;16.00
40199;BMP280;25906;43.536;26.068;2023-06-14T02:56:13;98627.19;;;15.52
40199;BMP280;25906;43.536;26.068;2023-06-14T02:58:59;98637.00;;;15.84
40199;BMP280;25906;43.536;26.068;2023-06-14T03:01:45;98635.06;;;15.99
40199;BMP280;25906;43.536;26.068;2023-06-14T03:04:31;98638.63;;;16.11
40199;BMP280;25906;43.536;26.068;2023-06-14T03:07:22;98641.25;;;16.20
40199;BMP280;25906;43.536;26.068;2023-06-14T03:10:08;98636.31;;;16.33
40199;BMP280;25906;43.536;26.068;2023-06-14T03:12:54;98633.75;;;16.39
40199;BMP280;25906;43.536;26.068;2023-06-14T03:15:40;98646.69;;;16.60
40199;BMP280;25906;43.536;26.068;2023-06-14T03:18:26;98641.84;;;16.99
40199;BMP280;25906;43.536;26.068;2023-06-14T03:21:12;98639.22;;;17.45
40199;BMP280;25906;43.536;26.068;2023-06-14T03:23:57;98639.13;;;17.86
40199;BMP280;25906;43.536;26.068;2023-06-14T03:26:43;98641.63;;;18.26
40199;BMP280;25906;43.536;26.068;2023-06-14T03:29:28;98648.84;;;18.51
40199;BMP280;25906;43.536;26.068;2023-06-14T03:32:14;98642.63;;;18.71
40199;BMP280;25906;43.536;26.068;2023-06-14T03:34:59;98644.69;;;18.93
40199;BMP280;25906;43.536;26.068;2023-06-14T03:37:45;98650.03;;;18.98
40199;BMP280;25906;43.536;26.068;2023-06-14T03:40:31;98652.94;;;18.89
40199;BMP280;25906;43.536;26.068;2023-06-14T03:43:17;98662.78;;;18.55
40199;BMP280;25906;43.536;26.068;2023-06-14T03:46:02;98661.53;;;18.56
40199;BMP280;25906;43.536;26.068;2023-06-14T03:48:47;98662.22;;;18.94
40199;BMP280;25906;43.536;26.068;2023-06-14T03:51:33;98664.72;;;19.08
40199;BMP280;25906;43.536;26.068;2023-06-14T03:54:20;98665.28;;;19.29
40199;BMP280;25906;43.536;26.068;2023-06-14T03:57:06;98665.06;;;19.43
40199;BMP280;25906;43.536;26.068;2023-06-14T03:59:52;98670.63;;;19.23
40199;BMP280;25906;43.536;26.068;2023-06-14T04:02:38;98670.09;;;19.14
40199;BMP280;25906;43.536;26.068;2023-06-14T04:05:24;98673.88;;;19.55
40199;BMP280;25906;43.536;26.068;2023-06-14T04:08:11;98673.41;;;20.01
40199;BMP280;25906;43.536;26.068;2023-06-14T04:10:59;98665.59;;;20.20
40199;BMP280;25906;43.536;26.068;2023-06-14T04:13:45;98665.56;;;20.25
40199;BMP280;25906;43.536;26.068;2023-06-14T04:16:30;98676.09;;;20.18
40199;BMP280;25906;43.536;26.068;2023-06-14T04:19:16;98675.34;;;20.45
40199;BMP280;25906;43.536;26.068;2023-06-14T04:22:02;98676.69;;;20.79
40199;BMP280;25906;43.536;26.068;2023-06-14T04:24:47;98682.72;;;20.22
40199;BMP280;25906;43.536;26.068;2023-06-14T04:27:34;98678.72;;;20.56
40199;BMP280;25906;43.536;26.068;2023-06-14T04:30:21;98682.72;;;20.96
40199;BMP280;25906;43.536;26.068;2023-06-14T04:33:12;98681.94;;;20.44
40199;BMP280;25906;43.536;26.068;2023-06-14T04:35:57;98684.16;;;20.18
40199;BMP280;25906;43.536;26.068;2023-06-14T04:38:45;98686.84;;;20.12
40199;BMP280;25906;43.536;26.068;2023-06-14T04:41:31;98686.97;;;20.75
40199;BMP280;25906;43.536;26.068;2023-06-14T04:44:16;98691.00;;;21.15
40199;BMP280;25906;43.536;26.068;2023-06-14T04:47:03;98700.50;;;21.16
40199;BMP280;25906;43.536;26.068;2023-06-14T04:49:49;98704.34;;;21.32
40199;BMP280;25906;43.536;26.068;2023-06-14T04:52:35;98710.03;;;21.22
40199;BMP280;25906;43.536;26.068;2023-06-14T04:55:22;98697.25;;;21.69
40199;BMP280;25906;43.536;26.068;2023-06-14T04:58:07;98699.81;;;21.51
40199;BMP280;25906;43.536;26.068;2023-06-14T05:00:53;98699.13;;;20.98
40199;BMP280;25906;43.536;26.068;2023-06-14T05:03:39;98700.69;;;21.70
40199;BMP280;25906;43.536;26.068;2023-06-14T05:06:24;98703.44;;;22.18
40199;BMP280;25906;43.536;26.068;2023-06-14T05:09:14;98699.50;;;21.95
40199;BMP280;25906;43.536;26.068;2023-06-14T05:12:00;98716.25;;;21.82
40199;BMP280;25906;43.536;26.068;2023-06-14T05:14:45;98715.47;;;22.41
40199;BMP280;25906;43.536;26.068;2023-06-14T05:17:31;98708.88;;;22.42
40199;BMP280;25906;43.536;26.068;2023-06-14T05:20:16;98719.72;;;21.37
40199;BMP280;25906;43.536;26.068;2023-06-14T05:23:02;98708.13;;;21.53
40199;BMP280;25906;43.536;26.068;2023-06-14T05:25:47;98712.13;;;21.76
40199;BMP280;25906;43.536;26.068;2023-06-14T05:28:33;98719.19;;;22.38
40199;BMP280;25906;43.536;26.068;2023-06-14T05:31:18;98717.44;;;21.87
40199;BMP280;25906;43.536;26.068;2023-06-14T05:34:04;98716.91;;;21.59
40199;BMP280;25906;43.536;26.068;2023-06-14T05:36:49;98717.03;;;21.77
40199;BMP280;25906;43.536;26.068;2023-06-14T05:39:35;98722.47;;;21.72
40199;BMP280;25906;43.536;26.068;2023-06-14T05:42:20;98716.16;;;21.64
40199;BMP280;25906;43.536;26.068;2023-06-14T05:45:06;98719.38;;;21.57
40199;BMP280;25906;43.536;26.068;2023-06-14T05:47:52;98721.16;;;22.38
40199;BMP280;25906;43.536;26.068;2023-06-14T05:50:39;98723.63;;;22.60
40199;BMP280;25906;43.536;26.068;2023-06-14T05:53:25;98723.28;;;22.45
40199;BMP280;25906;43.536;26.068;2023-06-14T05:56:11;98729.84;;;22.01
40199;BMP280;25906;43.536;26.068;2023-06-14T05:58:56;98734.41;;;22.60
40199;BMP280;25906;43.536;26.068;2023-06-14T06:01:42;98742.31;;;22.58
40199;BMP280;25906;43.536;26.068;2023-06-14T06:04:27;98738.22;;;23.13
40199;BMP280;25906;43.536;26.068;2023-06-14T06:07:13;98737.59;;;23.57
40199;BMP280;25906;43.536;26.068;2023-06-14T06:09:58;98736.28;;;23.45
40199;BMP280;25906;43.536;26.068;2023-06-14T06:12:45;98745.66;;;22.64
40199;BMP280;25906;43.536;26.068;2023-06-14T06:15:32;98739.81;;;22.84
40199;BMP280;25906;43.536;26.068;2023-06-14T06:18:18;98738.16;;;23.19
40199;BMP280;25906;43.536;26.068;2023-06-14T06:21:04;98739.50;;;24.07
40199;BMP280;25906;43.536;26.068;2023-06-14T06:23:49;98744.91;;;24.07
40199;BMP280;25906;43.536;26.068;2023-06-14T06:26:35;98751.69;;;22.94
40199;BMP280;25906;43.536;26.068;2023-06-14T06:29:20;98746.25;;;23.56
40199;BMP280;25906;43.536;26.068;2023-06-14T06:32:06;98743.03;;;24.02
40199;BMP280;25906;43.536;26.068;2023-06-14T06:34:52;98738.59;;;24.44
40199;BMP280;25906;43.536;26.068;2023-06-14T06:37:38;98742.34;;;23.51
40199;BMP280;25906;43.536;26.068;2023-06-14T06:40:24;98742.94;;;23.44
40199;BMP280;25906;43.536;26.068;2023-06-14T06:43:10;98744.50;;;23.71
40199;BMP280;25906;43.536;26.068;2023-06-14T06:45:59;98749.94;;;23.34
40199;BMP280;25906;43.536;26.068;2023-06-14T06:48:44;98754.97;;;23.94
40199;BMP280;25906;43.536;26.068;2023-06-14T06:51:30;98753.19;;;24.41
40199;BMP280;25906;43.536;26.068;2023-06-14T06:54:15;98751.78;;;24.61
40199;BMP280;25906;43.536;26.068;2023-06-14T06:57:00;98746.34;;;25.34
40199;BMP280;25906;43.536;26.068;2023-06-14T06:59:49;98758.91;;;25.10
40199;BMP280;25906;43.536;26.068;2023-06-14T07:02:36;98749.94;;;24.82
40199;BMP280;25906;43.536;26.068;2023-06-14T07:05:21;98758.22;;;24.05
40199;BMP280;25906;43.536;26.068;2023-06-14T07:08:07;98756.25;;;24.06
40199;BMP280;25906;43.536;26.068;2023-06-14T07:10:53;98757.31;;;24.29
40199;BMP280;25906;43.536;26.068;2023-06-14T07:13:38;98748.66;;;24.70
40199;BMP280;25906;43.536;26.068;2023-06-14T07:16:24;98756.63;;;23.65
40199;BMP280;25906;43.536;26.068;2023-06-14T07:19:09;98748.50;;;23.84
40199;BMP280;25906;43.536;26.068;2023-06-14T07:21:55;98752.84;;;24.18
40199;BMP280;25906;43.536;26.068;2023-06-14T07:24:40;98752.44;;;24.40
40199;BMP280;25906;43.536;26.068;2023-06-14T07:27:27;98752.28;;;24.98
40199;BMP280;25906;43.536;26.068;2023-06-14T07:30:12;98746.19;;;24.45
40199;BMP280;25906;43.536;26.068;2023-06-14T07:32:58;98745.06;;;24.41
40199;BMP280;25906;43.536;26.068;2023-06-14T07:35:44;98746.03;;;25.37
40199;BMP280;25906;43.536;26.068;2023-06-14T07:38:29;98748.84;;;26.22
40199;BMP280;25906;43.536;26.068;2023-06-14T07:41:15;98740.03;;;25.39
40199;BMP280;25906;43.536;26.068;2023-06-14T07:44:04;98744.16;;;25.32
40199;BMP280;25906;43.536;26.068;2023-06-14T07:46:50;98748.50;;;25.35
40199;BMP280;25906;43.536;26.068;2023-06-14T07:49:35;98743.56;;;24.79
40199;BMP280;25906;43.536;26.068;2023-06-14T07:52:21;98736.69;;;25.66
40199;BMP280;25906;43.536;26.068;2023-06-14T07:55:07;98740.94;;;26.31
40199;BMP280;25906;43.536;26.068;2023-06-14T07:57:53;98747.06;;;25.13
40199;BMP280;25906;43.536;26.068;2023-06-14T08:00:38;98747.81;;;26.04
40199;BMP280;25906;43.536;26.068;2023-06-14T08:03:24;98743.97;;;25.92
40199;BMP280;25906;43.536;26.068;2023-06-14T08:06:10;98745.31;;;25.37
40199;BMP280;25906;43.536;26.068;2023-06-14T08:08:55;98743.13;;;25.76
40199;BMP280;25906;43.536;26.068;2023-06-14T08:11:41;98750.53;;;26.04
40199;BMP280;25906;43.536;26.068;2023-06-14T08:14:26;98753.09;;;25.81
40199;BMP280;25906;43.536;26.068;2023-06-14T08:17:12;98754.13;;;25.99
40199;BMP280;25906;43.536;26.068;2023-06-14T08:19:57;98756.44;;;25.95
40199;BMP280;25906;43.536;26.068;2023-06-14T08:22:43;98755.28;;;25.83
40199;BMP280;25906;43.536;26.068;2023-06-14T08:25:31;98756.31;;;26.01
40199;BMP280;25906;43.536;26.068;2023-06-14T08:28:17;98751.41;;;25.99
40199;BMP280;25906;43.536;26.068;2023-06-14T08:31:02;98756.19;;;26.85
40199;BMP280;25906;43.536;26.068;2023-06-14T08:33:47;98754.25;;;27.01
40199;BMP280;25906;43.536;26.068;2023-06-14T08:36:35;98750.34;;;27.70
40199;BMP280;25906;43.536;26.068;2023-06-14T08:39:20;98747.63;;;27.32
40199;BMP280;25906;43.536;26.068;2023-06-14T08:42:09;98747.25;;;26.26
40199;BMP280;25906;43.536;26.068;2023-06-14T08:44:55;98741.63;;;27.11
40199;BMP280;25906;43.536;26.068;2023-06-14T08:47:41;98745.00;;;26.81
40199;BMP280;25906;43.536;26.068;2023-06-14T08:50:27;98745.94;;;27.14
40199;BMP280;25906;43.536;26.068;2023-06-14T08:53:17;98744.56;;;27.43
40199;BMP280;25906;43.536;26.068;2023-06-14T08:56:05;98750.91;;;26.65
40199;BMP280;25906;43.536;26.068;2023-06-14T08:58:51;98749.13;;;26.82
40199;BMP280;25906;43.536;26.068;2023-06-14T09:01:36;98741.75;;;26.98
40199;BMP280;25906;43.536;26.068;2023-06-14T09:04:22;98749.53;;;26.15
40199;BMP280;25906;43.536;26.068;2023-06-14T09:07:09;98745.41;;;26.21
40199;BMP280;25906;43.536;26.068;2023-06-14T09:10:07;98739.13;;;26.34
40199;BMP280;25906;43.536;26.068;2023-06-14T09:12:55;98744.72;;;26.28
40199;BMP280;25906;43.536;26.068;2023-06-14T09:15:40;98738.53;;;26.48
40199;BMP280;25906;43.536;26.068;2023-06-14T09:18:45;98742.91;;;27.48
40199;BMP280;25906;43.536;26.068;2023-06-14T09:21:35;98739.91;;;26.78
40199;BMP280;25906;43.536;26.068;2023-06-14T09:24:24;98738.53;;;26.56
40199;BMP280;25906;43.536;26.068;2023-06-14T09:27:15;98751.88;;;26.90
40199;BMP280;25906;43.536;26.068;2023-06-14T09:30:06;98745.88;;;26.40
40199;BMP280;25906;43.536;26.068;2023-06-14T09:32:54;98746.28;;;26.95
40199;BMP280;25906;43.536;26.068;2023-06-14T09:35:40;98750.31;;;26.59
40199;BMP280;25906;43.536;26.068;2023-06-14T09:38:25;98741.94;;;26.92
40199;BMP280;25906;43.536;26.068;2023-06-14T09:41:11;98747.22;;;27.05
40199;BMP280;25906;43.536;26.068;2023-06-14T09:43:58;98742.72;;;27.31
40199;BMP280;25906;43.536;26.068;2023-06-14T09:46:46;98746.00;;;27.37
40199;BMP280;25906;43.536;26.068;2023-06-14T09:49:32;98737.66;;;27.57
40199;BMP280;25906;43.536;26.068;2023-06-14T09:52:18;98744.38;;;27.71
40199;BMP280;25906;43.536;26.068;2023-06-14T09:55:11;98737.88;;;26.71
40199;BMP280;25906;43.536;26.068;2023-06-14T09:57:57;98745.75;;;26.53
40199;BMP280;25906;43.536;26.068;2023-06-14T10:00:45;98746.81;;;26.50
40199;BMP280;25906;43.536;26.068;2023-06-14T10:03:31;98733.25;;;27.01
40199;BMP280;25906;43.536;26.068;2023-06-14T10:06:17;98735.50;;;27.41
40199;BMP280;25906;43.536;26.068;2023-06-14T10:09:03;98737.28;;;27.31
40199;BMP280;25906;43.536;26.068;2023-06-14T10:11:49;98740.88;;;26.16
40199;BMP280;25906;43.536;26.068;2023-06-14T10:14:35;98731.75;;;26.78
40199;BMP280;25906;43.536;26.068;2023-06-14T10:20:44;98730.28;;;26.33
40199;BMP280;25906;43.536;26.068;2023-06-14T10:23:37;98726.31;;;26.85
40199;BMP280;25906;43.536;26.068;2023-06-14T10:26:23;98719.38;;;26.62
40199;BMP280;25906;43.536;26.068;2023-06-14T10:29:09;98728.25;;;27.43
40199;BMP280;25906;43.536;26.068;2023-06-14T10:31:59;98714.09;;;27.90
40199;BMP280;25906;43.536;26.068;2023-06-14T10:34:45;98709.22;;;27.58
40199;BMP280;25906;43.536;26.068;2023-06-14T10:37:30;98717.56;;;27.60
40199;BMP280;25906;43.536;26.068;2023-06-14T10:40:30;98724.25;;;27.67
40199;BMP280;25906;43.536;26.068;2023-06-14T10:43:23;98712.94;;;28.00
40199;BMP280;25906;43.536;26.068;2023-06-14T10:46:15;98725.44;;;26.90
40199;BMP280;25906;43.536;26.068;2023-06-14T10:49:01;98715.75;;;26.67
40199;BMP280;25906;43.536;26.068;2023-06-14T10:51:52;98716.19;;;26.86
40199;BMP280;25906;43.536;26.068;2023-06-14T10:54:38;98724.59;;;26.60
40199;BMP280;25906;43.536;26.068;2023-06-14T10:57:23;98724.31;;;26.35
40199;BMP280;25906;43.536;26.068;2023-06-14T11:00:10;98728.22;;;25.91
40199;BMP280;25906;43.536;26.068;2023-06-14T11:05:54;98731.66;;;26.27
40199;BMP280;25906;43.536;26.068;2023-06-14T11:12:05;98729.19;;;26.36
40199;BMP280;25906;43.536;26.068;2023-06-14T11:14:52;98728.69;;;26.38
40199;BMP280;25906;43.536;26.068;2023-06-14T11:17:37;98729.91;;;26.29
40199;BMP280;25906;43.536;26.068;2023-06-14T11:20:27;98726.84;;;26.05
40199;BMP280;25906;43.536;26.068;2023-06-14T11:23:12;98724.66;;;25.75
40199;BMP280;25906;43.536;26.068;2023-06-14T11:25:58;98719.78;;;25.53
40199;BMP280;25906;43.536;26.068;2023-06-14T11:28:43;98726.88;;;25.84
40199;BMP280;25906;43.536;26.068;2023-06-14T11:31:29;98732.31;;;25.84
40199;BMP280;25906;43.536;26.068;2023-06-14T11:34:15;98728.00;;;25.89
40199;BMP280;25906;43.536;26.068;2023-06-14T11:37:01;98727.59;;;26.05
40199;BMP280;25906;43.536;26.068;2023-06-14T11:39:47;98730.53;;;25.87
40199;BMP280;25906;43.536;26.068;2023-06-14T11:42:32;98727.00;;;25.99
40199;BMP280;25906;43.536;26.068;2023-06-14T11:45:18;98717.00;;;25.66
40199;BMP280;25906;43.536;26.068;2023-06-14T11:48:03;98717.72;;;25.66
40199;BMP280;25906;43.536;26.068;2023-06-14T11:50:49;98718.78;;;25.43
40199;BMP280;25906;43.536;26.068;2023-06-14T11:53:35;98723.72;;;25.31
40199;BMP280;25906;43.536;26.068;2023-06-14T11:56:20;98715.44;;;25.16
40199;BMP280;25906;43.536;26.068;2023-06-14T11:59:06;98719.81;;;25.19
40199;BMP280;25906;43.536;26.068;2023-06-14T12:01:55;98717.78;;;25.33
40199;BMP280;25906;43.536;26.068;2023-06-14T12:04:41;98708.00;;;25.50
40199;BMP280;25906;43.536;26.068;2023-06-14T12:07:26;98707.06;;;25.48
40199;BMP280;25906;43.536;26.068;2023-06-14T12:10:14;98706.69;;;25.44
40199;BMP280;25906;43.536;26.068;2023-06-14T12:13:00;98706.28;;;25.40
40199;BMP280;25906;43.536;26.068;2023-06-14T12:15:54;98696.19;;;25.40
40199;BMP280;25906;43.536;26.068;2023-06-14T12:18:40;98698.81;;;25.33
40199;BMP280;25906;43.536;26.068;2023-06-14T12:21:26;98690.75;;;25.40
40199;BMP280;25906;43.536;26.068;2023-06-14T12:24:13;98694.72;;;25.39
40199;BMP280;25906;43.536;26.068;2023-06-14T12:26:59;98695.25;;;25.58
40199;BMP280;25906;43.536;26.068;2023-06-14T12:29:45;98696.09;;;26.02
40199;BMP280;25906;43.536;26.068;2023-06-14T12:32:30;98697.91;;;26.00
40199;BMP280;25906;43.536;26.068;2023-06-14T12:35:16;98687.88;;;25.87
40199;BMP280;25906;43.536;26.068;2023-06-14T12:38:01;98693.13;;;26.21
40199;BMP280;25906;43.536;26.068;2023-06-14T12:40:48;98695.31;;;26.22
40199;BMP280;25906;43.536;26.068;2023-06-14T12:43:34;98697.13;;;26.27
40199;BMP280;25906;43.536;26.068;2023-06-14T12:46:19;98699.59;;;26.10
40199;BMP280;25906;43.536;26.068;2023-06-14T12:49:08;98687.78;;;26.43
40199;BMP280;25906;43.536;26.068;2023-06-14T12:51:53;98680.91;;;27.01
40199;BMP280;25906;43.536;26.068;2023-06-14T12:54:39;98685.06;;;26.36
40199;BMP280;25906;43.536;26.068;2023-06-14T12:57:24;98691.81;;;26.07
40199;BMP280;25906;43.536;26.068;2023-06-14T13:00:10;98678.72;;;26.33
40199;BMP280;25906;43.536;26.068;2023-06-14T13:02:57;98688.00;;;26.45
40199;BMP280;25906;43.536;26.068;2023-06-14T13:05:43;98677.78;;;26.82
40199;BMP280;25906;43.536;26.068;2023-06-14T13:08:29;98675.22;;;26.18
40199;BMP280;25906;43.536;26.068;2023-06-14T13:11:15;98677.63;;;26.29
40199;BMP280;25906;43.536;26.068;2023-06-14T13:14:01;98674.97;;;26.08
40199;BMP280;25906;43.536;26.068;2023-06-14T13:16:46;98668.63;;;26.41
40199;BMP280;25906;43.536;26.068;2023-06-14T13:19:32;98665.56;;;26.52
40199;BMP280;25906;43.536;26.068;2023-06-14T13:22:17;98664.03;;;26.80
40199;BMP280;25906;43.536;26.068;2023-06-14T13:25:03;98658.16;;;26.53
40199;BMP280;25906;43.536;26.068;2023-06-14T13:27:49;98662.22;;;26.75
40199;BMP280;25906;43.536;26.068;2023-06-14T13:30:35;98666.06;;;27.02
40199;BMP280;25906;43.536;26.068;2023-06-14T13:33:20;98660.09;;;27.26
40199;BMP280;25906;43.536;26.068;2023-06-14T13:36:05;98660.09;;;27.56
40199;BMP280;25906;43.536;26.068;2023-06-14T13:38:51;98653.53;;;26.91
40199;BMP280;25906;43.536;26.068;2023-06-14T13:41:38;98643.59;;;27.01
40199;BMP280;25906;43.536;26.068;2023-06-14T13:44:23;98644.63;;;26.76
40199;BMP280;25906;43.536;26.068;2023-06-14T13:47:10;98636.66;;;26.55
40199;BMP280;25906;43.536;26.068;2023-06-14T13:49:55;98634.28;;;26.51
40199;BMP280;25906;43.536;26.068;2023-06-14T13:52:41;98636.09;;;26.49
40199;BMP280;25906;43.536;26.068;2023-06-14T13:55:27;98638.59;;;26.47
40199;BMP280;25906;43.536;26.068;2023-06-14T13:58:12;98639.72;;;26.67
40199;BMP280;25906;43.536;26.068;2023-06-14T14:00:59;98632.53;;;26.77
40199;BMP280;25906;43.536;26.068;2023-06-14T14:03:49;98630.66;;;26.49
40199;BMP280;25906;43.536;26.068;2023-06-14T14:06:35;98633.03;;;26.60
40199;BMP280;25906;43.536;26.068;2023-06-14T14:09:20;98633.59;;;26.74
40199;BMP280;25906;43.536;26.068;2023-06-14T14:12:06;98634.78;;;26.42
40199;BMP280;25906;43.536;26.068;2023-06-14T14:14:51;98627.47;;;26.22
40199;BMP280;25906;43.536;26.068;2023-06-14T14:17:37;98633.13;;;25.96
40199;BMP280;25906;43.536;26.068;2023-06-14T14:20:23;98634.38;;;26.23
40199;BMP280;25906;43.536;26.068;2023-06-14T14:23:08;98624.78;;;25.94
40199;BMP280;25906;43.536;26.068;2023-06-14T14:25:53;98626.53;;;26.12
40199;BMP280;25906;43.536;26.068;2023-06-14T14:28:39;98622.88;;;26.45
40199;BMP280;25906;43.536;26.068;2023-06-14T14:31:25;98621.50;;;26.24
40199;BMP280;25906;43.536;26.068;2023-06-14T14:34:11;98626.53;;;26.12
40199;BMP280;25906;43.536;26.068;2023-06-14T14:36:56;98617.19;;;26.28
40199;BMP280;25906;43.536;26.068;2023-06-14T14:39:41;98613.41;;;26.31
40199;BMP280;25906;43.536;26.068;2023-06-14T14:42:27;98616.44;;;26.28
40199;BMP280;25906;43.536;26.068;2023-06-14T14:45:13;98613.69;;;26.71
40199;BMP280;25906;43.536;26.068;2023-06-14T14:48:00;98615.31;;;26.82
40199;BMP280;25906;43.536;26.068;2023-06-14T14:50:46;98614.94;;;26.63
40199;BMP280;25906;43.536;26.068;2023-06-14T14:53:31;98603.13;;;26.45
40199;BMP280;25906;43.536;26.068;2023-06-14T14:56:16;98602.78;;;26.56
40199;BMP280;25906;43.536;26.068;2023-06-14T14:59:02;98605.34;;;26.62
40199;BMP280;25906;43.536;26.068;2023-06-14T15:01:48;98595.28;;;26.34
40199;BMP280;25906;43.536;26.068;2023-06-14T15:04:33;98602.09;;;26.56
40199;BMP280;25906;43.536;26.068;2023-06-14T15:07:19;98601.34;;;26.63
40199;BMP280;25906;43.536;26.068;2023-06-14T15:10:06;98597.16;;;26.46
40199;BMP280;25906;43.536;26.068;2023-06-14T15:12:51;98596.72;;;25.84
40199;BMP280;25906;43.536;26.068;2023-06-14T15:15:37;98603.91;;;25.46
40199;BMP280;25906;43.536;26.068;2023-06-14T15:18:22;98614.38;;;25.21
40199;BMP280;25906;43.536;26.068;2023-06-14T15:21:08;98597.72;;;24.96
40199;BMP280;25906;43.536;26.068;2023-06-14T15:23:53;98599.91;;;25.19
40199;BMP280;25906;43.536;26.068;2023-06-14T15:26:39;98600.78;;;25.42
40199;BMP280;25906;43.536;26.068;2023-06-14T15:29:24;98600.28;;;25.43
40199;BMP280;25906;43.536;26.068;2023-06-14T15:32:10;98606.94;;;25.42
40199;BMP280;25906;43.536;26.068;2023-06-14T15:34:56;98608.91;;;25.42
40199;BMP280;25906;43.536;26.068;2023-06-14T15:37:41;98605.03;;;25.50
40199;BMP280;25906;43.536;26.068;2023-06-14T15:40:27;98613.28;;;25.45
40199;BMP280;25906;43.536;26.068;2023-06-14T15:43:13;98597.41;;;25.49
40199;BMP280;25906;43.536;26.068;2023-06-14T15:45:58;98604.25;;;25.70
40199;BMP280;25906;43.536;26.068;2023-06-14T15:48:44;98607.88;;;25.73
40199;BMP280;25906;43.536;26.068;2023-06-14T15:51:29;98603.22;;;25.81
40199;BMP280;25906;43.536;26.068;2023-06-14T15:54:14;98597.53;;;25.71
40199;BMP280;25906;43.536;26.068;2023-06-14T15:57:00;98600.13;;;25.49